sensor_id;sensor_type;location;lat;lon;timestamp;P1;durP1;ratioP1;P2;durP2;ratioP2
37309;SDS011;23195;47.744;7.358;2022-07-24T00:01:28;13.57;;;12.17;;
37309;SDS011;23195;47.744;7.358;2022-07-24T00:03:54;15.10;;;12.30;;
37309;SDS011;23195;47.744;7.358;2022-07-24T00:06:19;14.10;;;12.60;;
37309;SDS011;23195;47.744;7.358;2022-07-24T00:08:45;15.27;;;12.93;;
37309;SDS011;23195;47.744;7.358;2022-07-24T00:11:11;13.53;;;11.67;;
37309;SDS011;23195;47.744;7.358;2022-07-24T00:13:37;12.83;;;11.53;;
37309;SDS011;23195;47.744;7.358;2022-07-24T00:16:03;13.33;;;11.93;;
37309;SDS011;23195;47.744;7.358;2022-07-24T00:18:30;13.47;;;11.67;;
37309;SDS011;23195;47.744;7.358;2022-07-24T00:20:56;14.30;;;12.07;;
37309;SDS011;23195;47.744;7.358;2022-07-24T00:23:22;14.57;;;12.27;;
37309;SDS011;23195;47.744;7.358;2022-07-24T00:25:49;15.40;;;12.33;;
37309;SDS011;23195;47.744;7.358;2022-07-24T00:28:15;14.00;;;12.00;;
37309;SDS011;23195;47.744;7.358;2022-07-24T00:30:41;13.90;;;11.90;;
37309;SDS011;23195;47.744;7.358;2022-07-24T00:33:07;13.10;;;11.73;;
37309;SDS011;23195;47.744;7.358;2022-07-24T00:35:33;15.00;;;12.33;;
37309;SDS011;23195;47.744;7.358;2022-07-24T00:37:59;13.70;;;12.20;;
37309;SDS011;23195;47.744;7.358;2022-07-24T00:40:25;13.53;;;12.13;;
37309;SDS011;23195;47.744;7.358;2022-07-24T00:42:52;13.80;;;12.40;;
37309;SDS011;23195;47.744;7.358;2022-07-24T00:45:17;17.47;;;11.83;;
37309;SDS011;23195;47.744;7.358;2022-07-24T00:47:43;13.67;;;12.07;;
37309;SDS011;23195;47.744;7.358;2022-07-24T00:50:09;14.50;;;12.07;;
37309;SDS011;23195;47.744;7.358;2022-07-24T00:52:36;13.20;;;11.43;;
37309;SDS011;23195;47.744;7.358;2022-07-24T00:55:02;16.70;;;12.53;;
37309;SDS011;23195;47.744;7.358;2022-07-24T00:57:28;14.87;;;12.00;;
37309;SDS011;23195;47.744;7.358;2022-07-24T00:59:55;15.07;;;12.00;;
37309;SDS011;23195;47.744;7.358;2022-07-24T01:02:24;15.93;;;12.33;;
37309;SDS011;23195;47.744;7.358;2022-07-24T01:04:50;15.10;;;11.93;;
37309;SDS011;23195;47.744;7.358;2022-07-24T01:07:16;13.13;;;11.83;;
37309;SDS011;23195;47.744;7.358;2022-07-24T01:09:42;12.80;;;11.47;;
37309;SDS011;23195;47.744;7.358;2022-07-24T01:12:09;13.03;;;11.73;;
37309;SDS011;23195;47.744;7.358;2022-07-24T01:14:35;14.67;;;12.17;;
37309;SDS011;23195;47.744;7.358;2022-07-24T01:17:01;14.67;;;11.23;;
37309;SDS011;23195;47.744;7.358;2022-07-24T01:19:27;14.37;;;12.27;;
37309;SDS011;23195;47.744;7.358;2022-07-24T01:21:53;14.90;;;12.27;;
37309;SDS011;23195;47.744;7.358;2022-07-24T01:24:19;14.33;;;12.37;;
37309;SDS011;23195;47.744;7.358;2022-07-24T01:26:46;16.03;;;12.53;;
37309;SDS011;23195;47.744;7.358;2022-07-24T01:29:13;15.97;;;12.00;;
37309;SDS011;23195;47.744;7.358;2022-07-24T01:31:43;13.67;;;11.90;;
37309;SDS011;23195;47.744;7.358;2022-07-24T01:34:09;14.90;;;11.97;;
37309;SDS011;23195;47.744;7.358;2022-07-24T01:36:35;14.07;;;12.03;;
37309;SDS011;23195;47.744;7.358;2022-07-24T01:39:01;13.60;;;12.07;;
37309;SDS011;23195;47.744;7.358;2022-07-24T01:41:27;14.07;;;12.53;;
37309;SDS011;23195;47.744;7.358;2022-07-24T01:43:56;14.53;;;12.40;;
37309;SDS011;23195;47.744;7.358;2022-07-24T01:46:22;14.60;;;12.67;;
37309;SDS011;23195;47.744;7.358;2022-07-24T01:48:47;13.50;;;12.10;;
37309;SDS011;23195;47.744;7.358;2022-07-24T01:51:13;16.97;;;12.80;;
37309;SDS011;23195;47.744;7.358;2022-07-24T01:53:39;13.97;;;12.43;;
37309;SDS011;23195;47.744;7.358;2022-07-24T01:56:05;14.20;;;12.70;;
37309;SDS011;23195;47.744;7.358;2022-07-24T01:58:31;18.90;;;12.37;;
37309;SDS011;23195;47.744;7.358;2022-07-24T02:00:57;13.93;;;12.10;;
37309;SDS011;23195;47.744;7.358;2022-07-24T02:03:23;13.87;;;12.13;;
37309;SDS011;23195;47.744;7.358;2022-07-24T02:05:49;14.83;;;13.00;;
37309;SDS011;23195;47.744;7.358;2022-07-24T02:08:14;14.37;;;12.87;;
37309;SDS011;23195;47.744;7.358;2022-07-24T02:10:43;17.60;;;12.63;;
37309;SDS011;23195;47.744;7.358;2022-07-24T02:13:12;14.83;;;12.90;;
37309;SDS011;23195;47.744;7.358;2022-07-24T02:15:38;15.53;;;12.43;;
37309;SDS011;23195;47.744;7.358;2022-07-24T02:18:07;15.67;;;12.60;;
37309;SDS011;23195;47.744;7.358;2022-07-24T02:20:33;14.53;;;12.90;;
37309;SDS011;23195;47.744;7.358;2022-07-24T02:23:00;14.27;;;12.87;;
37309;SDS011;23195;47.744;7.358;2022-07-24T02:25:26;15.83;;;12.63;;
37309;SDS011;23195;47.744;7.358;2022-07-24T02:27:53;15.20;;;13.03;;
37309;SDS011;23195;47.744;7.358;2022-07-24T02:30:20;14.73;;;13.23;;
37309;SDS011;23195;47.744;7.358;2022-07-24T02:32:57;15.90;;;13.20;;
37309;SDS011;23195;47.744;7.358;2022-07-24T02:35:29;15.07;;;12.53;;
37309;SDS011;23195;47.744;7.358;2022-07-24T02:37:55;14.87;;;12.83;;
37309;SDS011;23195;47.744;7.358;2022-07-24T02:40:21;14.27;;;12.47;;
37309;SDS011;23195;47.744;7.358;2022-07-24T02:42:50;14.37;;;12.50;;
37309;SDS011;23195;47.744;7.358;2022-07-24T02:45:16;15.47;;;13.07;;
37309;SDS011;23195;47.744;7.358;2022-07-24T02:47:49;17.43;;;13.53;;
37309;SDS011;23195;47.744;7.358;2022-07-24T02:50:21;15.33;;;13.57;;
37309;SDS011;23195;47.744;7.358;2022-07-24T02:52:51;14.83;;;13.23;;
37309;SDS011;23195;47.744;7.358;2022-07-24T02:55:17;13.83;;;12.33;;
37309;SDS011;23195;47.744;7.358;2022-07-24T02:57:54;15.23;;;13.37;;
37309;SDS011;23195;47.744;7.358;2022-07-24T03:00:21;14.57;;;13.03;;
37309;SDS011;23195;47.744;7.358;2022-07-24T03:02:51;14.30;;;12.80;;
37309;SDS011;23195;47.744;7.358;2022-07-24T03:05:20;18.33;;;13.83;;
37309;SDS011;23195;47.744;7.358;2022-07-24T03:07:50;17.03;;;13.40;;
37309;SDS011;23195;47.744;7.358;2022-07-24T03:10:20;15.07;;;13.47;;
37309;SDS011;23195;47.744;7.358;2022-07-24T03:12:52;15.27;;;13.63;;
37309;SDS011;23195;47.744;7.358;2022-07-24T03:15:21;14.37;;;12.87;;
37309;SDS011;23195;47.744;7.358;2022-07-24T03:17:51;16.13;;;13.40;;
37309;SDS011;23195;47.744;7.358;2022-07-24T03:20:25;15.43;;;13.23;;
37309;SDS011;23195;47.744;7.358;2022-07-24T03:22:52;14.97;;;12.33;;
37309;SDS011;23195;47.744;7.358;2022-07-24T03:25:18;14.80;;;13.30;;
37309;SDS011;23195;47.744;7.358;2022-07-24T03:27:44;15.23;;;13.17;;
37309;SDS011;23195;47.744;7.358;2022-07-24T03:30:11;13.70;;;12.30;;
37309;SDS011;23195;47.744;7.358;2022-07-24T03:32:37;15.30;;;12.70;;
37309;SDS011;23195;47.744;7.358;2022-07-24T03:35:03;15.23;;;12.87;;
37309;SDS011;23195;47.744;7.358;2022-07-24T03:37:29;14.97;;;12.60;;
37309;SDS011;23195;47.744;7.358;2022-07-24T03:39:58;14.47;;;12.73;;
37309;SDS011;23195;47.744;7.358;2022-07-24T03:42:24;16.00;;;13.13;;
37309;SDS011;23195;47.744;7.358;2022-07-24T03:44:50;14.57;;;13.03;;
37309;SDS011;23195;47.744;7.358;2022-07-24T03:47:16;15.23;;;13.43;;
37309;SDS011;23195;47.744;7.358;2022-07-24T03:49:42;16.60;;;13.60;;
37309;SDS011;23195;47.744;7.358;2022-07-24T03:52:08;14.03;;;12.63;;
37309;SDS011;23195;47.744;7.358;2022-07-24T03:54:34;15.67;;;13.17;;
37309;SDS011;23195;47.744;7.358;2022-07-24T03:57:00;14.63;;;13.07;;
37309;SDS011;23195;47.744;7.358;2022-07-24T03:59:26;14.73;;;13.23;;
37309;SDS011;23195;47.744;7.358;2022-07-24T04:01:52;17.83;;;13.60;;
37309;SDS011;23195;47.744;7.358;2022-07-24T04:04:17;14.77;;;13.27;;
37309;SDS011;23195;47.744;7.358;2022-07-24T04:06:43;17.40;;;13.27;;
37309;SDS011;23195;47.744;7.358;2022-07-24T04:09:09;15.50;;;12.73;;
37309;SDS011;23195;47.744;7.358;2022-07-24T04:11:35;16.03;;;13.30;;
37309;SDS011;23195;47.744;7.358;2022-07-24T04:14:01;15.10;;;12.87;;
37309;SDS011;23195;47.744;7.358;2022-07-24T04:16:35;16.23;;;13.37;;
37309;SDS011;23195;47.744;7.358;2022-07-24T04:19:07;21.50;;;13.80;;
37309;SDS011;23195;47.744;7.358;2022-07-24T04:21:36;17.43;;;13.30;;
37309;SDS011;23195;47.744;7.358;2022-07-24T04:24:07;15.13;;;13.53;;
37309;SDS011;23195;47.744;7.358;2022-07-24T04:26:34;15.43;;;13.80;;
37309;SDS011;23195;47.744;7.358;2022-07-24T04:29:00;16.83;;;14.20;;
37309;SDS011;23195;47.744;7.358;2022-07-24T04:31:25;17.70;;;14.17;;
37309;SDS011;23195;47.744;7.358;2022-07-24T04:33:51;17.13;;;14.17;;
37309;SDS011;23195;47.744;7.358;2022-07-24T04:36:17;15.60;;;14.00;;
37309;SDS011;23195;47.744;7.358;2022-07-24T04:38:43;15.20;;;13.40;;
37309;SDS011;23195;47.744;7.358;2022-07-24T04:41:11;17.83;;;14.30;;
37309;SDS011;23195;47.744;7.358;2022-07-24T04:43:37;18.50;;;14.20;;
37309;SDS011;23195;47.744;7.358;2022-07-24T04:46:03;15.10;;;13.50;;
37309;SDS011;23195;47.744;7.358;2022-07-24T04:48:29;16.43;;;13.57;;
37309;SDS011;23195;47.744;7.358;2022-07-24T04:50:55;15.43;;;13.50;;
37309;SDS011;23195;47.744;7.358;2022-07-24T04:53:21;15.57;;;13.57;;
37309;SDS011;23195;47.744;7.358;2022-07-24T04:55:48;15.00;;;13.40;;
37309;SDS011;23195;47.744;7.358;2022-07-24T04:58:14;17.00;;;13.20;;
37309;SDS011;23195;47.744;7.358;2022-07-24T05:00:39;16.00;;;14.20;;
37309;SDS011;23195;47.744;7.358;2022-07-24T05:03:05;14.57;;;13.07;;
37309;SDS011;23195;47.744;7.358;2022-07-24T05:05:31;15.23;;;12.83;;
37309;SDS011;23195;47.744;7.358;2022-07-24T05:07:57;17.53;;;12.93;;
37309;SDS011;23195;47.744;7.358;2022-07-24T05:10:23;14.10;;;12.60;;
37309;SDS011;23195;47.744;7.358;2022-07-24T05:12:48;13.67;;;11.90;;
37309;SDS011;23195;47.744;7.358;2022-07-24T05:15:14;12.93;;;11.63;;
37309;SDS011;23195;47.744;7.358;2022-07-24T05:17:40;12.47;;;11.23;;
37309;SDS011;23195;47.744;7.358;2022-07-24T05:20:06;16.03;;;10.57;;
37309;SDS011;23195;47.744;7.358;2022-07-24T05:22:33;10.57;;;9.63;;
37309;SDS011;23195;47.744;7.358;2022-07-24T05:24:58;11.43;;;9.20;;
37309;SDS011;23195;47.744;7.358;2022-07-24T05:27:24;12.37;;;10.00;;
37309;SDS011;23195;47.744;7.358;2022-07-24T05:29:50;10.43;;;9.40;;
37309;SDS011;23195;47.744;7.358;2022-07-24T05:32:16;12.10;;;9.57;;
37309;SDS011;23195;47.744;7.358;2022-07-24T05:34:42;10.93;;;9.83;;
37309;SDS011;23195;47.744;7.358;2022-07-24T05:37:08;9.50;;;8.67;;
37309;SDS011;23195;47.744;7.358;2022-07-24T05:39:34;9.90;;;9.00;;
37309;SDS011;23195;47.744;7.358;2022-07-24T05:42:00;9.83;;;8.80;;
37309;SDS011;23195;47.744;7.358;2022-07-24T05:44:28;10.30;;;9.30;;
37309;SDS011;23195;47.744;7.358;2022-07-24T05:46:54;10.53;;;9.30;;
37309;SDS011;23195;47.744;7.358;2022-07-24T05:49:21;10.20;;;9.10;;
37309;SDS011;23195;47.744;7.358;2022-07-24T05:51:46;11.73;;;9.47;;
37309;SDS011;23195;47.744;7.358;2022-07-24T05:54:12;10.03;;;9.03;;
37309;SDS011;23195;47.744;7.358;2022-07-24T05:56:38;9.93;;;8.87;;
37309;SDS011;23195;47.744;7.358;2022-07-24T05:59:07;9.93;;;9.10;;
37309;SDS011;23195;47.744;7.358;2022-07-24T06:01:33;9.93;;;8.80;;
37309;SDS011;23195;47.744;7.358;2022-07-24T06:03:59;9.60;;;8.67;;
37309;SDS011;23195;47.744;7.358;2022-07-24T06:06:25;10.03;;;9.20;;
37309;SDS011;23195;47.744;7.358;2022-07-24T06:08:51;9.43;;;8.53;;
37309;SDS011;23195;47.744;7.358;2022-07-24T06:11:16;9.33;;;8.43;;
37309;SDS011;23195;47.744;7.358;2022-07-24T06:13:42;11.90;;;9.77;;
37309;SDS011;23195;47.744;7.358;2022-07-24T06:16:08;9.77;;;8.77;;
37309;SDS011;23195;47.744;7.358;2022-07-24T06:18:39;11.87;;;9.90;;
37309;SDS011;23195;47.744;7.358;2022-07-24T06:21:05;10.73;;;9.70;;
37309;SDS011;23195;47.744;7.358;2022-07-24T06:23:34;11.83;;;10.00;;
37309;SDS011;23195;47.744;7.358;2022-07-24T06:26:05;11.20;;;10.10;;
37309;SDS011;23195;47.744;7.358;2022-07-24T06:28:51;10.40;;;9.50;;
37309;SDS011;23195;47.744;7.358;2022-07-24T06:31:28;11.23;;;10.23;;
37309;SDS011;23195;47.744;7.358;2022-07-24T06:37:23;11.70;;;10.53;;
37309;SDS011;23195;47.744;7.358;2022-07-24T06:40:02;11.73;;;10.40;;
37309;SDS011;23195;47.744;7.358;2022-07-24T06:42:42;12.73;;;11.33;;
37309;SDS011;23195;47.744;7.358;2022-07-24T06:45:11;14.20;;;11.63;;
37309;SDS011;23195;47.744;7.358;2022-07-24T06:47:45;12.90;;;11.50;;
37309;SDS011;23195;47.744;7.358;2022-07-24T06:50:11;13.40;;;10.60;;
37309;SDS011;23195;47.744;7.358;2022-07-24T06:52:38;11.37;;;10.27;;
37309;SDS011;23195;47.744;7.358;2022-07-24T06:55:04;12.13;;;9.90;;
37309;SDS011;23195;47.744;7.358;2022-07-24T06:57:51;10.33;;;9.20;;
37309;SDS011;23195;47.744;7.358;2022-07-24T07:00:19;12.60;;;8.97;;
37309;SDS011;23195;47.744;7.358;2022-07-24T07:02:45;10.10;;;9.10;;
37309;SDS011;23195;47.744;7.358;2022-07-24T07:05:11;12.03;;;9.00;;
37309;SDS011;23195;47.744;7.358;2022-07-24T07:07:37;10.83;;;8.67;;
37309;SDS011;23195;47.744;7.358;2022-07-24T07:10:12;11.37;;;9.70;;
37309;SDS011;23195;47.744;7.358;2022-07-24T07:12:40;11.73;;;8.97;;
37309;SDS011;23195;47.744;7.358;2022-07-24T07:15:34;10.20;;;8.82;;
37309;SDS011;23195;47.744;7.358;2022-07-24T07:18:00;9.73;;;8.82;;
37309;SDS011;23195;47.744;7.358;2022-07-24T07:20:25;9.50;;;8.50;;
37309;SDS011;23195;47.744;7.358;2022-07-24T07:22:54;8.82;;;7.95;;
37309;SDS011;23195;47.744;7.358;2022-07-24T07:25:20;9.68;;;8.68;;
37309;SDS011;23195;47.744;7.358;2022-07-24T07:27:46;9.43;;;8.35;;
37309;SDS011;23195;47.744;7.358;2022-07-24T07:30:15;9.40;;;8.52;;
37309;SDS011;23195;47.744;7.358;2022-07-24T07:32:44;9.52;;;8.55;;
37309;SDS011;23195;47.744;7.358;2022-07-24T07:35:09;9.02;;;7.75;;
37309;SDS011;23195;47.744;7.358;2022-07-24T07:37:38;8.38;;;7.68;;
37309;SDS011;23195;47.744;7.358;2022-07-24T07:40:04;8.60;;;7.63;;
37309;SDS011;23195;47.744;7.358;2022-07-24T07:42:31;9.00;;;8.10;;
37309;SDS011;23195;47.744;7.358;2022-07-24T07:44:56;8.18;;;7.47;;
37309;SDS011;23195;47.744;7.358;2022-07-24T07:47:22;7.75;;;7.05;;
37309;SDS011;23195;47.744;7.358;2022-07-24T07:49:48;8.52;;;7.72;;
37309;SDS011;23195;47.744;7.358;2022-07-24T07:52:14;8.55;;;7.68;;
37309;SDS011;23195;47.744;7.358;2022-07-24T07:54:39;8.90;;;7.63;;
37309;SDS011;23195;47.744;7.358;2022-07-24T07:57:08;7.43;;;6.88;;
37309;SDS011;23195;47.744;7.358;2022-07-24T07:59:33;8.95;;;8.18;;
37309;SDS011;23195;47.744;7.358;2022-07-24T08:01:59;8.18;;;7.40;;
37309;SDS011;23195;47.744;7.358;2022-07-24T08:04:25;7.70;;;7.05;;
37309;SDS011;23195;47.744;7.358;2022-07-24T08:06:51;9.13;;;7.65;;
37309;SDS011;23195;47.744;7.358;2022-07-24T08:09:17;8.20;;;7.45;;
37309;SDS011;23195;47.744;7.358;2022-07-24T08:11:43;7.72;;;7.13;;
37309;SDS011;23195;47.744;7.358;2022-07-24T08:14:08;8.32;;;7.60;;
37309;SDS011;23195;47.744;7.358;2022-07-24T08:16:34;8.05;;;7.20;;
37309;SDS011;23195;47.744;7.358;2022-07-24T08:19:00;8.43;;;7.65;;
37309;SDS011;23195;47.744;7.358;2022-07-24T08:21:26;8.23;;;7.60;;
37309;SDS011;23195;47.744;7.358;2022-07-24T08:23:53;10.00;;;7.95;;
37309;SDS011;23195;47.744;7.358;2022-07-24T08:26:18;9.45;;;7.35;;
37309;SDS011;23195;47.744;7.358;2022-07-24T08:28:44;8.40;;;7.53;;
37309;SDS011;23195;47.744;7.358;2022-07-24T08:31:13;7.88;;;7.07;;
37309;SDS011;23195;47.744;7.358;2022-07-24T08:33:38;7.30;;;6.65;;
37309;SDS011;23195;47.744;7.358;2022-07-24T08:36:07;9.23;;;6.88;;
37309;SDS011;23195;47.744;7.358;2022-07-24T08:38:33;7.90;;;7.20;;
37309;SDS011;23195;47.744;7.358;2022-07-24T08:40:59;8.33;;;7.50;;
37309;SDS011;23195;47.744;7.358;2022-07-24T08:43:28;8.40;;;7.50;;
37309;SDS011;23195;47.744;7.358;2022-07-24T08:45:54;7.47;;;6.77;;
37309;SDS011;23195;47.744;7.358;2022-07-24T08:48:21;8.87;;;7.90;;
37309;SDS011;23195;47.744;7.358;2022-07-24T08:50:47;7.70;;;7.00;;
37309;SDS011;23195;47.744;7.358;2022-07-24T08:53:24;7.50;;;6.80;;
37309;SDS011;23195;47.744;7.358;2022-07-24T08:55:49;7.43;;;6.73;;
37309;SDS011;23195;47.744;7.358;2022-07-24T08:58:15;7.43;;;6.83;;
37309;SDS011;23195;47.744;7.358;2022-07-24T09:00:44;7.15;;;6.55;;
37309;SDS011;23195;47.744;7.358;2022-07-24T09:03:13;7.87;;;7.17;;
37309;SDS011;23195;47.744;7.358;2022-07-24T09:05:51;10.13;;;7.67;;
37309;SDS011;23195;47.744;7.358;2022-07-24T09:08:19;7.73;;;6.93;;
37309;SDS011;23195;47.744;7.358;2022-07-24T09:11:01;7.87;;;7.03;;
37309;SDS011;23195;47.744;7.358;2022-07-24T09:13:36;7.57;;;6.83;;
37309;SDS011;23195;47.744;7.358;2022-07-24T09:16:22;8.43;;;7.20;;
37309;SDS011;23195;47.744;7.358;2022-07-24T09:22:16;6.70;;;6.03;;
37309;SDS011;23195;47.744;7.358;2022-07-24T09:27:57;8.13;;;6.80;;
37309;SDS011;23195;47.744;7.358;2022-07-24T09:30:31;7.20;;;6.50;;
37309;SDS011;23195;47.744;7.358;2022-07-24T09:33:00;7.47;;;6.80;;
37309;SDS011;23195;47.744;7.358;2022-07-24T09:35:35;6.87;;;6.00;;
37309;SDS011;23195;47.744;7.358;2022-07-24T09:38:12;9.20;;;7.13;;
37309;SDS011;23195;47.744;7.358;2022-07-24T09:40:42;7.50;;;6.27;;
37309;SDS011;23195;47.744;7.358;2022-07-24T09:45:52;7.57;;;6.17;;
37309;SDS011;23195;47.744;7.358;2022-07-24T09:48:21;9.20;;;6.90;;
37309;SDS011;23195;47.744;7.358;2022-07-24T09:51:21;7.90;;;7.13;;
37309;SDS011;23195;47.744;7.358;2022-07-24T09:54:02;9.93;;;8.97;;
37309;SDS011;23195;47.744;7.358;2022-07-24T09:56:28;7.97;;;7.17;;
37309;SDS011;23195;47.744;7.358;2022-07-24T09:58:56;8.57;;;7.67;;
37309;SDS011;23195;47.744;7.358;2022-07-24T10:01:25;14.93;;;13.33;;
37309;SDS011;23195;47.744;7.358;2022-07-24T10:03:53;13.63;;;10.40;;
37309;SDS011;23195;47.744;7.358;2022-07-24T10:06:22;8.50;;;7.60;;
37309;SDS011;23195;47.744;7.358;2022-07-24T10:08:52;8.47;;;7.77;;
37309;SDS011;23195;47.744;7.358;2022-07-24T10:11:19;8.57;;;7.47;;
37309;SDS011;23195;47.744;7.358;2022-07-24T10:13:46;11.33;;;9.07;;
37309;SDS011;23195;47.744;7.358;2022-07-24T10:18:48;9.80;;;7.27;;
37309;SDS011;23195;47.744;7.358;2022-07-24T10:21:24;8.37;;;7.33;;
37309;SDS011;23195;47.744;7.358;2022-07-24T10:26:39;8.27;;;7.33;;
37309;SDS011;23195;47.744;7.358;2022-07-24T10:29:13;9.90;;;7.40;;
37309;SDS011;23195;47.744;7.358;2022-07-24T10:31:42;11.23;;;7.67;;
37309;SDS011;23195;47.744;7.358;2022-07-24T10:34:18;7.47;;;6.77;;
37309;SDS011;23195;47.744;7.358;2022-07-24T10:37:22;7.70;;;7.10;;
37309;SDS011;23195;47.744;7.358;2022-07-24T10:43:17;8.30;;;7.50;;
37309;SDS011;23195;47.744;7.358;2022-07-24T10:45:45;10.33;;;7.47;;
37309;SDS011;23195;47.744;7.358;2022-07-24T10:56:23;8.50;;;7.60;;
37309;SDS011;23195;47.744;7.358;2022-07-24T10:59:08;8.60;;;7.80;;
37309;SDS011;23195;47.744;7.358;2022-07-24T11:01:41;9.23;;;7.47;;
37309;SDS011;23195;47.744;7.358;2022-07-24T11:04:30;10.53;;;7.63;;
37309;SDS011;23195;47.744;7.358;2022-07-24T11:07:29;9.93;;;8.60;;
37309;SDS011;23195;47.744;7.358;2022-07-24T11:09:55;11.53;;;8.40;;
37309;SDS011;23195;47.744;7.358;2022-07-24T11:12:28;9.37;;;7.93;;
37309;SDS011;23195;47.744;7.358;2022-07-24T11:14:59;12.17;;;9.20;;
37309;SDS011;23195;47.744;7.358;2022-07-24T11:17:45;8.67;;;7.87;;
37309;SDS011;23195;47.744;7.358;2022-07-24T11:20:19;9.13;;;8.23;;
37309;SDS011;23195;47.744;7.358;2022-07-24T11:22:54;8.23;;;7.17;;
37309;SDS011;23195;47.744;7.358;2022-07-24T11:25:26;8.67;;;7.40;;
37309;SDS011;23195;47.744;7.358;2022-07-24T11:27:57;8.50;;;7.70;;
37309;SDS011;23195;47.744;7.358;2022-07-24T11:30:41;8.30;;;7.57;;
37309;SDS011;23195;47.744;7.358;2022-07-24T11:33:09;8.70;;;7.90;;
37309;SDS011;23195;47.744;7.358;2022-07-24T11:35:36;8.17;;;7.37;;
37309;SDS011;23195;47.744;7.358;2022-07-24T11:38:04;8.57;;;7.67;;
37309;SDS011;23195;47.744;7.358;2022-07-24T11:40:33;8.67;;;7.87;;
37309;SDS011;23195;47.744;7.358;2022-07-24T11:43:01;7.83;;;7.10;;
37309;SDS011;23195;47.744;7.358;2022-07-24T11:45:32;9.70;;;7.17;;
37309;SDS011;23195;47.744;7.358;2022-07-24T11:48:18;9.33;;;7.40;;
37309;SDS011;23195;47.744;7.358;2022-07-24T11:50:47;8.23;;;7.27;;
37309;SDS011;23195;47.744;7.358;2022-07-24T11:53:47;9.77;;;7.80;;
37309;SDS011;23195;47.744;7.358;2022-07-24T11:56:13;12.57;;;9.87;;
37309;SDS011;23195;47.744;7.358;2022-07-24T11:58:41;8.20;;;7.37;;
37309;SDS011;23195;47.744;7.358;2022-07-24T12:01:20;12.67;;;7.47;;
37309;SDS011;23195;47.744;7.358;2022-07-24T12:03:50;7.40;;;6.80;;
37309;SDS011;23195;47.744;7.358;2022-07-24T12:06:23;7.97;;;7.17;;
37309;SDS011;23195;47.744;7.358;2022-07-24T12:08:50;7.70;;;7.00;;
37309;SDS011;23195;47.744;7.358;2022-07-24T12:11:20;10.83;;;7.70;;
37309;SDS011;23195;47.744;7.358;2022-07-24T12:13:49;8.30;;;7.50;;
37309;SDS011;23195;47.744;7.358;2022-07-24T12:16:25;10.50;;;7.30;;
37309;SDS011;23195;47.744;7.358;2022-07-24T12:18:53;7.63;;;7.03;;
37309;SDS011;23195;47.744;7.358;2022-07-24T12:21:39;7.93;;;7.13;;
37309;SDS011;23195;47.744;7.358;2022-07-24T12:24:06;8.10;;;7.30;;
37309;SDS011;23195;47.744;7.358;2022-07-24T12:26:32;8.23;;;7.43;;
37309;SDS011;23195;47.744;7.358;2022-07-24T12:29:08;7.50;;;6.80;;
37309;SDS011;23195;47.744;7.358;2022-07-24T12:31:35;7.63;;;6.97;;
37309;SDS011;23195;47.744;7.358;2022-07-24T12:34:00;7.70;;;7.00;;
37309;SDS011;23195;47.744;7.358;2022-07-24T12:36:26;8.47;;;7.40;;
37309;SDS011;23195;47.744;7.358;2022-07-24T12:38:54;7.97;;;7.27;;
37309;SDS011;23195;47.744;7.358;2022-07-24T12:41:22;8.50;;;7.33;;
37309;SDS011;23195;47.744;7.358;2022-07-24T12:44:00;7.43;;;6.53;;
37309;SDS011;23195;47.744;7.358;2022-07-24T12:46:31;7.53;;;6.87;;
37309;SDS011;23195;47.744;7.358;2022-07-24T12:54:20;8.57;;;6.77;;
37309;SDS011;23195;47.744;7.358;2022-07-24T12:56:48;8.27;;;7.30;;
37309;SDS011;23195;47.744;7.358;2022-07-24T12:59:26;8.40;;;7.10;;
37309;SDS011;23195;47.744;7.358;2022-07-24T13:01:56;8.07;;;7.27;;
37309;SDS011;23195;47.744;7.358;2022-07-24T13:04:27;7.70;;;6.93;;
37309;SDS011;23195;47.744;7.358;2022-07-24T13:06:54;9.93;;;6.60;;
37309;SDS011;23195;47.744;7.358;2022-07-24T13:09:22;7.50;;;6.83;;
37309;SDS011;23195;47.744;7.358;2022-07-24T13:11:49;7.30;;;6.60;;
37309;SDS011;23195;47.744;7.358;2022-07-24T13:14:18;7.70;;;6.90;;
37309;SDS011;23195;47.744;7.358;2022-07-24T13:16:46;12.07;;;7.40;;
37309;SDS011;23195;47.744;7.358;2022-07-24T13:19:16;6.97;;;6.30;;
37309;SDS011;23195;47.744;7.358;2022-07-24T13:21:42;7.80;;;6.97;;
37309;SDS011;23195;47.744;7.358;2022-07-24T13:24:09;7.30;;;6.70;;
37309;SDS011;23195;47.744;7.358;2022-07-24T13:26:37;6.97;;;6.47;;
37309;SDS011;23195;47.744;7.358;2022-07-24T13:29:03;7.60;;;6.50;;
37309;SDS011;23195;47.744;7.358;2022-07-24T13:31:29;7.80;;;7.20;;
37309;SDS011;23195;47.744;7.358;2022-07-24T13:33:56;8.03;;;6.90;;
37309;SDS011;23195;47.744;7.358;2022-07-24T13:36:21;8.47;;;5.97;;
37309;SDS011;23195;47.744;7.358;2022-07-24T13:38:50;7.17;;;6.47;;
37309;SDS011;23195;47.744;7.358;2022-07-24T13:41:16;7.27;;;6.53;;
37309;SDS011;23195;47.744;7.358;2022-07-24T13:43:47;8.40;;;6.80;;
37309;SDS011;23195;47.744;7.358;2022-07-24T13:46:13;7.13;;;6.10;;
37309;SDS011;23195;47.744;7.358;2022-07-24T13:48:40;7.67;;;6.90;;
37309;SDS011;23195;47.744;7.358;2022-07-24T13:51:09;10.30;;;6.93;;
37309;SDS011;23195;47.744;7.358;2022-07-24T13:53:35;7.10;;;6.43;;
37309;SDS011;23195;47.744;7.358;2022-07-24T13:56:03;7.00;;;6.40;;
37309;SDS011;23195;47.744;7.358;2022-07-24T13:58:31;7.10;;;6.40;;
37309;SDS011;23195;47.744;7.358;2022-07-24T14:00:56;7.50;;;6.83;;
37309;SDS011;23195;47.744;7.358;2022-07-24T14:03:22;6.90;;;6.40;;
37309;SDS011;23195;47.744;7.358;2022-07-24T14:05:48;7.63;;;6.43;;
37309;SDS011;23195;47.744;7.358;2022-07-24T14:08:14;7.20;;;6.50;;
37309;SDS011;23195;47.744;7.358;2022-07-24T14:10:40;7.27;;;6.57;;
37309;SDS011;23195;47.744;7.358;2022-07-24T14:13:05;7.20;;;6.17;;
37309;SDS011;23195;47.744;7.358;2022-07-24T14:15:31;8.00;;;6.20;;
37309;SDS011;23195;47.744;7.358;2022-07-24T14:17:57;7.57;;;6.53;;
37309;SDS011;23195;47.744;7.358;2022-07-24T14:20:23;7.27;;;6.20;;
37309;SDS011;23195;47.744;7.358;2022-07-24T14:22:49;7.27;;;6.47;;
37309;SDS011;23195;47.744;7.358;2022-07-24T14:25:14;7.03;;;6.43;;
37309;SDS011;23195;47.744;7.358;2022-07-24T14:27:41;6.90;;;6.30;;
37309;SDS011;23195;47.744;7.358;2022-07-24T14:30:07;6.47;;;5.90;;
37309;SDS011;23195;47.744;7.358;2022-07-24T14:32:33;7.33;;;6.40;;
37309;SDS011;23195;47.744;7.358;2022-07-24T14:34:59;7.33;;;6.57;;
37309;SDS011;23195;47.744;7.358;2022-07-24T14:37:26;7.37;;;6.17;;
37309;SDS011;23195;47.744;7.358;2022-07-24T14:39:52;6.67;;;6.07;;
37309;SDS011;23195;47.744;7.358;2022-07-24T14:42:18;6.40;;;5.80;;
37309;SDS011;23195;47.744;7.358;2022-07-24T14:44:43;6.80;;;6.13;;
37309;SDS011;23195;47.744;7.358;2022-07-24T14:47:09;6.43;;;5.83;;
37309;SDS011;23195;47.744;7.358;2022-07-24T14:49:35;7.10;;;6.40;;
37309;SDS011;23195;47.744;7.358;2022-07-24T14:52:01;6.13;;;5.63;;
37309;SDS011;23195;47.744;7.358;2022-07-24T14:54:27;6.17;;;5.60;;
37309;SDS011;23195;47.744;7.358;2022-07-24T14:56:53;9.63;;;6.20;;
37309;SDS011;23195;47.744;7.358;2022-07-24T14:59:23;6.60;;;6.00;;
37309;SDS011;23195;47.744;7.358;2022-07-24T15:01:49;6.70;;;6.20;;
37309;SDS011;23195;47.744;7.358;2022-07-24T15:04:15;6.10;;;5.60;;
37309;SDS011;23195;47.744;7.358;2022-07-24T15:06:41;6.50;;;5.90;;
37309;SDS011;23195;47.744;7.358;2022-07-24T15:09:06;6.70;;;6.10;;
37309;SDS011;23195;47.744;7.358;2022-07-24T15:11:32;6.53;;;5.93;;
37309;SDS011;23195;47.744;7.358;2022-07-24T15:13:58;7.13;;;6.03;;
37309;SDS011;23195;47.744;7.358;2022-07-24T15:16:24;8.13;;;5.83;;
37309;SDS011;23195;47.744;7.358;2022-07-24T15:18:49;6.03;;;5.43;;